Time;durP1;ratioP1;P1;durP2;ratioP2;P2;SDS_P1;SDS_P2;PMS_P1;PMS_P2;Temp;Humidity;BMP_temperature;BMP_pressure;BME280_temperature;BME280_humidity;BME280_pressure;Samples;Min_cycle;Max_cycle;Signal;HPM_P1;HPM_P2
2021/09/14 00:03:00;;;;;;;;;57.00;47.50;;;;;22.54;54.09;100716.84;5942127;23;45459;-92
2021/09/14 00:05:35;;;;;;;;;51.00;44.00;;;;;22.25;54.27;100658.63;5834301;24;44702;-92
2021/09/14 00:08:12;;;;;;;;;54.75;46.25;;;;;22.26;54.48;100686.56;5834084;24;44798;-92
2021/09/14 00:10:44;;;;;;;;;60.50;50.25;;;;;22.10;54.35;100661.16;5808461;24;44830;-92
2021/09/14 00:13:20;;;;;;;;;54.50;46.00;;;;;22.22;54.20;100683.34;5829717;24;45113;-93
2021/09/14 00:15:56;;;;;;;;;48.75;41.25;;;;;22.23;54.47;100689.63;5786689;24;44758;-91
2021/09/14 00:18:29;;;;;;;;;57.00;47.80;;;;;22.17;54.62;100681.13;5838301;24;44761;-91
2021/09/14 00:20:56;;;;;;;;;50.75;43.75;;;;;22.09;54.80;100683.00;5836368;24;44926;-91
2021/09/14 00:23:27;;;;;;;;;58.25;48.75;;;;;22.35;54.83;100725.34;5932049;23;45202;-92
2021/09/14 00:25:55;;;;;;;;;56.25;46.50;;;;;22.30;54.81;100705.00;5919330;24;44721;-91
2021/09/14 00:28:26;;;;;;;;;64.00;53.00;;;;;21.98;55.10;100657.13;5937234;23;44580;-92
2021/09/14 00:31:01;;;;;;;;;53.00;44.25;;;;;21.93;55.15;100661.19;6093027;23;44848;-92
2021/09/14 00:33:28;;;;;;;;;47.50;41.25;;;;;22.26;55.23;100727.19;6084297;23;45481;-92
2021/09/14 00:35:57;;;;;;;;;50.25;42.75;;;;;22.17;55.08;100718.22;6080086;23;44695;-91
2021/09/14 00:38:27;;;;;;;;;40.75;36.00;;;;;21.87;55.06;100672.66;6084059;23;45016;-93
2021/09/14 00:40:59;;;;;;;;;47.25;41.00;;;;;22.09;55.41;100721.75;6115758;22;44872;-92
2021/09/14 00:43:27;;;;;;;;;53.50;44.75;;;;;21.53;55.65;100630.31;6230228;22;45075;-91
2021/09/14 00:45:55;;;;;;;;;56.33;46.67;;;;;21.76;55.86;100659.47;6204315;22;44710;-91
2021/09/14 00:48:26;;;;;;;;;52.20;44.20;;;;;21.99;55.60;100708.38;6253154;22;44789;-92
2021/09/14 00:50:55;;;;;;;;;55.00;46.50;;;;;21.83;55.85;100678.56;6231519;22;44850;-91
2021/09/14 00:53:22;;;;;;;;;66.75;54.50;;;;;21.53;55.94;100646.53;6231069;22;45098;-91
2021/09/14 00:55:51;;;;;;;;;54.25;46.25;;;;;21.82;55.59;100693.97;6230159;22;44713;-91
2021/09/14 00:58:19;;;;;;;;;55.25;46.75;;;;;21.71;56.16;100676.16;6206920;22;44756;-91
2021/09/14 01:00:46;;;;;;;;;63.50;51.75;;;;;21.87;55.97;100688.91;6206711;22;44886;-91
2021/09/14 01:03:13;;;;;;;;;56.00;46.75;;;;;21.90;56.47;100698.53;6206024;22;45116;-91
2021/09/14 01:05:45;;;;;;;;;61.25;50.25;;;;;21.86;56.18;100722.41;6202992;22;44882;-92
2021/09/14 01:08:18;;;;;;;;;65.75;54.00;;;;;21.44;56.13;100655.63;6232892;22;44727;-93
2021/09/14 01:10:48;;;;;;;;;63.67;52.00;;;;;21.55;56.38;100672.41;6210045;22;44897;-93
2021/09/14 01:13:24;;;;;;;;;;;;;;;;;;;;;
2021/09/14 01:16:10;;;;;;;;;59.25;49.50;;;;;21.66;56.46;100676.66;6212568;22;44693;-92
2021/09/14 01:18:44;;;;;;;;;45.50;39.75;;;;;21.88;56.59;100706.81;6231788;22;44675;-92
2021/09/14 01:21:25;;;;;;;;;52.50;45.00;;;;;21.65;56.15;100683.06;6233711;22;44895;-91
2021/09/14 01:23:54;;;;;;;;;53.00;44.50;;;;;21.61;56.19;100665.47;6215662;22;45103;-91
2021/09/14 01:26:24;;;;;;;;;47.50;40.50;;;;;21.87;56.34;100712.44;6213921;22;44756;-92
2021/09/14 01:32:15;;;;;;;;;65.40;54.00;;;;;22.01;56.20;100729.88;6241592;22;44754;-93
2021/09/14 01:34:44;;;;;;;;;49.25;42.25;;;;;21.87;56.34;100712.44;6238547;22;45086;-90
2021/09/14 01:37:14;;;;;;;;;39.75;35.75;;;;;21.83;56.42;100700.22;6237624;22;44673;-92
2021/09/14 01:39:47;;;;;;;;;57.25;47.50;;;;;21.80;56.56;100709.53;6216075;22;44739;-91
2021/09/14 01:42:21;;;;;;;;;62.20;49.80;;;;;21.77;56.98;100717.97;6215778;22;44831;-91
2021/09/14 01:44:57;;;;;;;;;;;;;;;;;;;;;
2021/09/14 01:47:57;;;;;;;;;;;;;;;;;;;;;
2021/09/14 01:50:34;;;;;;;;;54.75;46.50;;;;;22.02;56.79;100785.69;6231557;22;67350;-91
2021/09/14 01:53:14;;;;;;;;;56.50;47.50;;;;;21.83;56.42;100755.19;6212518;22;44917;-94
2021/09/14 01:55:44;;;;;;;;;62.25;51.50;;;;;22.04;56.59;100799.91;6175889;23;45076;-92
2021/09/14 01:58:16;;;;;;;;;48.25;41.75;;;;;21.99;56.36;100784.16;6177353;23;44835;-92
2021/09/14 02:01:40;;;;;;;;;;;;;;;;;;;;;
2021/09/14 03:00:52;;;;;;;;;57.75;48.25;;;;;21.71;58.90;100654.50;6161152;22;44790;-93
2021/09/14 03:03:40;;;;;;;;;60.00;50.25;;;;;21.40;58.19;100598.34;6146064;23;44781;-92
2021/09/14 03:06:10;;;;;;;;;62.25;51.75;;;;;21.54;58.58;100621.19;6131340;23;45056;-92
2021/09/14 03:08:39;;;;;;;;;62.25;50.50;;;;;21.46;59.00;100632.00;6124169;23;44670;-90
2021/09/14 03:11:15;;;;;;;;;58.00;49.00;;;;;21.37;59.03;100634.69;6123309;23;44864;-91
2021/09/14 03:13:45;;;;;;;;;51.40;44.20;;;;;21.28;59.68;100628.41;6152948;22;44858;-90
2021/09/14 03:16:11;;;;;;;;;;;;;;;21.63;59.93;100690.53;6187674;22;44968;-91
2021/09/14 03:18:43;;;;;;;;;65.25;54.25;;;;;21.35;59.99;100643.94;6207381;22;44567;-92
2021/09/14 03:21:31;;;;;;;;;;;;;;;;;;;;;
2021/09/14 03:24:01;;;;;;;;;47.75;41.00;;;;;21.07;60.54;100603.66;6208688;22;69732;-92
2021/09/14 03:26:43;;;;;;;;;55.75;47.00;;;;;21.58;60.84;100671.22;6208905;22;45255;-90
2021/09/14 03:29:11;;;;;;;;;50.75;43.50;;;;;21.59;60.42;100683.75;6228306;22;44706;-91
2021/09/14 03:31:39;;;;;;;;;60.00;50.00;;;;;21.38;60.48;100644.47;6158746;22;44799;-93
2021/09/14 03:34:09;;;;;;;;;53.40;45.20;;;;;21.23;60.58;100630.72;6209232;22;44826;-92
2021/09/14 03:36:37;;;;;;;;;66.00;54.33;;;;;20.97;60.50;100582.19;6215229;22;45075;-92
2021/09/14 03:39:35;;;;;;;;;56.75;47.75;;;;;21.12;60.92;100606.69;6241803;22;44744;-93
2021/09/14 03:43:00;;;;;;;;;52.25;44.75;;;;;21.15;60.49;100606.38;6102715;23;44753;-95
2021/09/14 03:45:59;;;;;;;;;59.25;48.75;;;;;21.35;61.39;100642.09;6117577;23;44833;-94
2021/09/14 04:07:48;;;;;;;;;;;;;;;;;;;;;
2021/09/14 04:10:10;;;;;;;;;;;;;;;21.33;62.08;100635.16;6179129;23;45551;-94
2021/09/14 04:13:12;;;;;;;;;;;;;;;;;;;;;
2021/09/14 04:16:22;;;;;;;;;59.50;50.25;;;;;21.35;62.21;100638.53;6095834;23;44735;-93
2021/09/14 04:25:09;;;;;;;;;67.60;55.00;;;;;21.15;61.59;100626.16;6266897;22;44773;-93
2021/09/14 04:27:52;;;;;;;;;61.80;51.00;;;;;21.18;61.92;100622.28;6178540;23;44819;-92
2021/09/14 04:30:20;;;;;;;;;;;;;;;21.37;62.66;100653.59;6183481;23;44766;-94
2021/09/14 04:33:12;;;;;;;;;58.25;48.50;;;;;21.10;62.21;100597.94;6181251;23;45662;-93
2021/09/14 04:35:51;;;;;;;;;;;;;;;;;;;;;
2021/09/14 04:38:47;;;;;;;;;63.00;52.50;;;;;21.09;62.54;100569.19;6178533;23;44815;-91
2021/09/14 04:45:00;;;;;;;;;60.75;50.50;;;;;21.38;62.30;100567.91;6145498;23;45601;-93
2021/09/14 04:48:10;;;;;;;;;;;;;;;;;;;;;
2021/09/14 04:51:02;;;;;;;;;;;;;;;;;;;;;
2021/09/14 06:01:48;;;;;;;;;66.00;54.00;;;;;20.49;66.13;100634.75;6223326;22;46088;-90
2021/09/14 07:55:06;;;;;;;;;63.00;52.33;;;;;20.98;72.41;100681.16;5489457;22;17612379;-92
2021/09/14 07:57:33;;;;;;;;;49.00;41.75;;;;;21.25;72.31;100706.28;6191619;23;45217;-93
2021/09/14 08:00:11;;;;;;;;;;;;;;;21.49;72.05;100746.09;6218019;23;44750;-94
2021/09/14 08:15:32;;;;;;;;;;;;;;;21.91;71.00;100741.69;6281210;22;45740;-91
2021/09/14 08:18:11;;;;;;;;;69.50;57.75;;;;;22.00;71.13;100737.13;6282228;22;45028;-93
2021/09/14 08:21:28;;;;;;;;;56.50;47.50;;;;;21.80;70.51;100696.84;6308807;22;44862;-94
2021/09/14 08:24:06;;;;;;;;;;;;;;;22.10;70.73;100736.16;6308044;22;44735;-93
2021/09/14 08:27:03;;;;;;;;;58.75;48.25;;;;;22.14;70.98;100743.78;6306130;22;44748;-93
2021/09/14 08:29:37;;;;;;;;;64.75;52.00;;;;;21.73;71.11;100690.38;6303923;22;45797;-93
2021/09/14 08:32:07;;;;;;;;;57.50;48.25;;;;;21.95;71.17;100730.53;6275930;22;44667;-92
2021/09/14 08:34:40;;;;;;;;;55.25;46.75;;;;;21.68;70.43;100692.72;6303469;22;44691;-95
2021/09/14 08:37:05;;;;;;;;;;;;;;;22.10;71.53;100760.50;6284272;22;44898;-93
2021/09/14 08:39:32;;;;;;;;;52.25;44.75;;;;;22.02;71.39;100747.78;6274005;22;45112;-91
2021/09/14 08:44:27;;;;;;;;;62.25;50.50;;;;;22.04;71.36;100719.53;6176429;23;44671;-91
2021/09/14 08:47:24;;;;;;;;;65.40;54.20;;;;;22.34;71.14;100759.69;6101027;23;44872;-93
2021/09/14 08:52:30;;;;;;;;;66.00;53.40;;;;;21.68;70.71;100680.03;6208695;22;45870;-91
2021/09/14 08:55:00;;;;;;;;;60.40;50.60;;;;;21.95;71.18;100736.78;6181939;22;44745;-92
2021/09/14 08:57:27;;;;;;;;;57.33;47.00;;;;;22.10;70.85;100757.81;6158238;22;44827;-92
2021/09/14 09:00:02;;;;;;;;;56.25;46.00;;;;;22.36;70.78;100800.16;6156303;22;45240;-93
2021/09/14 09:02:55;;;;;;;;;65.00;53.00;;;;;22.13;71.23;100747.47;6182565;22;44756;-93
2021/09/14 09:05:57;;;;;;;;;47.67;40.50;;;;;22.11;71.01;100727.84;6086426;22;44780;-95
2021/09/14 09:08:29;;;;;;;;;;;;;;;22.51;70.87;100790.34;6113908;23;44794;-93
2021/09/14 09:11:13;;;;;;;;;65.50;53.50;;;;;22.09;70.26;100732.56;6112227;23;45262;-92
2021/09/14 09:13:51;;;;;;;;;59.80;50.00;;;;;22.29;70.34;100753.91;6086685;23;44758;-92
2021/09/14 09:16:28;;;;;;;;;51.00;43.50;;;;;22.34;70.46;100756.13;6028603;23;44745;-93
2021/09/14 09:19:02;;;;;;;;;53.50;45.00;;;;;22.31;70.35;100744.63;6028231;23;44813;-93
2021/09/14 09:21:45;;;;;;;;;63.50;52.25;;;;;22.30;70.41;100733.97;6005690;23;45141;-93
2021/09/14 09:24:34;;;;;;;;;;;;;;;22.68;70.27;100783.06;6020054;23;44750;-93
2021/09/14 09:27:09;;;;;;;;;;;;;;;22.75;70.11;100783.25;6064976;23;44818;-92
2021/09/14 09:29:37;;;;;;;;;68.40;57.80;;;;;22.35;70.17;100696.38;6050888;23;44901;-92
2021/09/14 09:32:03;;;;;;;;;47.25;40.75;;;;;22.68;69.82;100755.97;6031118;23;45147;-92
2021/09/14 09:34:30;;;;;;;;;49.75;42.00;;;;;22.92;69.94;100786.78;6009436;23;44765;-91
2021/09/14 09:37:04;;;;;;;;;63.00;51.40;;;;;22.92;70.03;100764.25;6008541;23;44649;-92
2021/09/14 09:39:42;;;;;;;;;64.20;52.20;;;;;22.77;70.26;100705.31;6008563;23;44812;-91
2021/09/14 09:42:10;;;;;;;;;58.00;48.40;;;;;22.77;70.26;100705.31;6007722;23;45024;-93
2021/09/14 09:45:09;;;;;;;;;56.00;47.00;;;;;23.58;68.84;100777.66;6010770;23;44704;-93
2021/09/14 09:47:35;;;;;;;;;;;;;;;23.68;68.84;100785.56;6044285;23;44711;-91
2021/09/14 09:50:05;;;;;;;;;71.00;62.67;;;;;23.61;68.63;100767.47;6057489;23;44786;-92
2021/09/14 09:52:37;;;;;;;;;56.75;47.25;;;;;23.69;68.89;100768.28;6025932;23;44926;-94
2021/09/14 09:55:10;;;;;;;;;;;;;;;23.71;68.21;100778.97;6063809;23;44783;-93
2021/09/14 09:57:40;;;;;;;;;61.50;50.50;;;;;23.59;68.69;100754.06;6058610;23;44733;-93
2021/09/14 10:00:09;;;;;;;;;70.20;64.20;;;;;23.18;68.03;100687.25;6061217;23;45023;-91
2021/09/14 10:05:27;;;;;;;;;82.80;79.20;;;;;23.42;68.55;100705.31;6286473;22;44673;-91
2021/09/14 10:07:55;;;;;;;;;76.60;72.00;;;;;23.76;68.13;100726.84;6298920;22;44700;-93
2021/09/14 10:10:35;;;;;;;;;117.67;117.67;;;;;24.14;67.04;100747.84;6268920;22;44766;-92
2021/09/14 10:13:04;;;;;;;;;125.50;124.67;;;;;24.31;67.67;100773.88;6299436;22;45232;-91
2021/09/14 10:15:42;;;;;;;;;160.50;160.00;;;;;23.94;67.22;100702.13;6260278;22;44718;-90
2021/09/14 10:20:45;;;;;;;;;108.50;107.50;;;;;24.08;67.43;100720.38;6260967;22;44883;-89
2021/09/14 10:23:17;;;;;;;;;;;;;;;24.42;67.08;100779.91;6269218;22;44976;-90
2021/09/14 10:25:51;;;;;;;;;113.33;113.33;;;;;24.15;67.03;100725.13;6232058;22;44776;-91
2021/09/14 10:28:18;;;;;;;;;114.17;113.50;;;;;24.15;66.97;100714.25;6230731;22;44810;-90
2021/09/14 10:30:46;;;;;;;;;158.00;157.17;;;;;24.59;66.79;100775.19;6226273;22;44873;-89
2021/09/14 10:33:25;;;;;;;;;149.00;149.00;;;;;24.69;66.67;100781.19;6224089;22;45643;-90
2021/09/14 10:35:51;;;;;;;;;143.80;143.80;;;;;24.57;66.20;100733.75;6228463;22;44809;-89
2021/09/14 10:38:24;;;;;;;;;149.00;149.00;;;;;24.89;66.75;100777.97;6202555;22;44705;-91
2021/09/14 10:40:54;;;;;;;;;65.00;54.20;;;;;24.69;65.67;100721.41;6225826;22;44746;-92
2021/09/14 10:43:29;;;;;;;;;;;;;;;25.10;65.79;100776.41;6234997;22;45081;-90
2021/09/14 10:45:57;;;;;;;;;157.17;157.17;;;;;24.86;64.83;100732.13;6227571;22;44718;-91
2021/09/14 10:48:30;;;;;;;;;;;;;;;25.24;64.54;100785.59;6230828;22;44686;-90
2021/09/14 10:51:09;;;;;;;;;110.00;109.80;;;;;24.93;64.31;100741.22;6234588;22;44910;-91
2021/09/14 10:53:36;;;;;;;;;163.00;163.00;;;;;25.15;64.52;100765.00;6237737;22;45193;-90
2021/09/14 10:56:02;;;;;;;;;157.60;156.40;;;;;24.82;64.54;100733.50;6230577;22;44878;-91
2021/09/14 10:58:58;;;;;;;;;145.80;145.40;;;;;24.41;64.44;100677.69;6226851;22;44830;-89
2021/09/14 11:01:25;;;;;;;;;144.50;144.50;;;;;24.92;65.02;100768.59;6229933;22;44905;-92
2021/09/14 11:04:04;;;;;;;;;148.67;148.67;;;;;24.88;64.90;100761.84;6231423;22;45083;-90
2021/09/14 11:06:32;;;;;;;;;164.83;163.33;;;;;24.75;64.93;100733.41;6257864;22;44668;-91
2021/09/14 11:09:03;;;;;;;;;154.00;153.83;;;;;24.69;65.01;100735.00;6232700;22;44682;-91
2021/09/14 11:11:30;;;;;;;;;167.50;167.50;;;;;24.56;64.78;100705.72;6233027;22;44866;-93
2021/09/14 11:13:56;;;;;;;;;150.17;149.83;;;;;24.72;64.75;100734.63;6230606;22;45444;-91
2021/09/14 11:16:24;;;;;;;;;163.17;162.83;;;;;24.42;64.15;100679.38;6228638;22;44774;-90
2021/09/14 11:18:49;;;;;;;;;158.20;156.20;;;;;24.62;65.47;100698.72;6229643;22;44810;-91
2021/09/14 11:21:17;;;;;;;;;152.60;151.40;;;;;24.97;64.91;100707.22;6229683;22;44770;-90
2021/09/14 11:23:44;;;;;;;;;165.33;165.33;;;;;25.21;64.85;100713.38;6229780;22;45245;-91
2021/09/14 11:26:17;;;;;;;;;49.57;42.14;;;;;25.56;63.73;100752.75;6225720;22;44612;-90
2021/09/14 11:28:58;;;;;;;;;157.33;156.17;;;;;25.74;63.54;100761.41;6231625;22;44730;-91
2021/09/14 11:31:27;;;;;;;;;148.20;148.20;;;;;25.76;63.35;100738.56;6233140;22;44847;-92
2021/09/14 11:33:54;;;;;;;;;153.50;153.50;;;;;25.78;62.68;100712.84;6231172;22;45141;-93
2021/09/14 11:36:20;;;;;;;;;147.60;147.00;;;;;26.23;62.06;100755.41;6230312;22;44631;-92
2021/09/14 11:38:47;;;;;;;;;158.20;157.20;;;;;26.10;61.65;100731.59;6230665;22;44795;-89
2021/09/14 11:41:13;;;;;;;;;158.00;158.00;;;;;26.31;60.54;100747.13;6207521;22;44858;-90
2021/09/14 11:43:42;;;;;;;;;157.00;157.00;;;;;26.12;61.71;100710.47;6231678;22;45383;-92
2021/09/14 11:46:26;;;;;;;;;158.40;156.80;;;;;26.44;60.79;100757.28;6235317;22;44656;-92
2021/09/14 11:48:59;;;;;;;;;;;;;;;26.37;61.26;100754.50;6266920;22;44702;-93
2021/09/14 11:51:30;;;;;;;;;160.17;159.17;;;;;26.41;60.26;100752.25;6240709;22;44825;-91
2021/09/14 11:53:58;;;;;;;;;150.67;150.67;;;;;26.20;60.81;100720.38;6266657;22;46733;-90
2021/09/14 11:56:25;;;;;;;;;;;;;;;26.40;60.10;100742.38;6266765;22;44772;-91
2021/09/14 11:58:50;;;;;;;;;152.40;151.80;;;;;26.15;59.97;100711.94;6237896;22;44621;-90
2021/09/14 12:01:18;;;;;;;;;145.50;145.50;;;;;26.38;59.34;100737.13;6235967;22;44841;-93
2021/09/14 12:03:51;;;;;;;;;161.00;161.00;;;;;26.15;59.86;100681.97;6241320;22;45314;-92
2021/09/14 12:06:30;;;;;;;;;165.17;163.83;;;;;26.21;58.62;100689.38;6213695;22;44644;-91
2021/09/14 12:08:59;;;;;;;;;156.67;155.83;;;;;26.31;60.52;100697.25;6234248;22;44778;-91
2021/09/14 12:11:29;;;;;;;;;;;;;;;26.66;58.58;100749.06;6241753;22;44744;-90
2021/09/14 12:14:00;;;;;;;;;154.17;154.00;;;;;26.46;58.05;100697.13;6239547;22;45135;-92
2021/09/14 12:16:31;;;;;;;;;149.80;148.80;;;;;26.44;58.92;100704.69;6234074;22;44667;-91
2021/09/14 12:18:57;;;;;;;;;158.83;156.67;;;;;26.54;59.05;100732.44;6231912;22;44745;-94
2021/09/14 12:21:24;;;;;;;;;162.67;162.67;;;;;26.43;58.44;100722.09;6233448;22;44866;-92
2021/09/14 12:23:50;;;;;;;;;154.00;153.67;;;;;26.36;58.17;100697.47;6224865;22;45008;-90
2021/09/14 12:26:19;;;;;;;;;;;;;;;26.57;58.20;100737.50;6256554;22;44634;-92
2021/09/14 12:28:46;;;;;;;;;151.60;151.60;;;;;26.57;58.85;100732.06;6231563;22;44728;-92
2021/09/14 12:31:11;;;;;;;;;;;;;;;26.61;59.17;100730.63;6213649;22;44825;-90
2021/09/14 12:33:37;;;;;;;;;151.60;151.60;;;;;26.34;57.55;100681.31;6240839;22;45022;-93
2021/09/14 12:36:05;;;;;;;;;154.83;154.00;;;;;26.37;56.58;100688.25;6270117;22;44736;-91
2021/09/14 12:38:30;;;;;;;;;;;;;;;26.54;57.89;100729.72;6249798;22;44631;-92
2021/09/14 12:40:57;;;;;;;;;175.17;175.17;;;;;26.48;57.52;100705.97;6269367;22;44766;-91
2021/09/14 12:43:23;;;;;;;;;;;;;;;26.67;58.28;100715.34;6245604;22;45412;-94
2021/09/14 12:45:49;;;;;;;;;141.00;141.00;;;;;26.46;58.26;100688.94;6246349;22;44575;-94
2021/09/14 12:48:29;;;;;;;;;;;;;;;;;;;;;
2021/09/14 12:51:10;;;;;;;;;155.17;155.17;;;;;26.75;57.73;100693.38;6268806;22;44775;-92
2021/09/14 12:53:38;;;;;;;;;66.33;53.83;;;;;26.71;57.91;100675.72;6263830;22;45434;-94
2021/09/14 12:56:07;;;;;;;;;162.67;162.17;;;;;26.85;55.41;100698.47;6243446;22;44920;-92
2021/09/14 12:58:32;;;;;;;;;150.33;150.00;;;;;26.66;56.80;100697.28;6267263;22;44705;-91
2021/09/14 13:01:00;;;;;;;;;;;;;;;26.81;55.72;100724.44;6246255;22;44751;-91
2021/09/14 13:03:25;;;;;;;;;158.20;156.40;;;;;26.62;55.79;100701.44;6239690;22;47020;-92
2021/09/14 13:05:52;;;;;;;;;156.50;156.17;;;;;26.76;56.75;100719.59;6234381;22;44996;-91
2021/09/14 13:08:17;;;;;;;;;;;;;;;26.77;56.58;100734.06;6234889;22;44691;-92
2021/09/14 13:16:14;;;;;;;;;153.57;153.57;;;;;26.69;55.22;100682.44;6301676;22;44756;-93
2021/09/14 13:18:41;;;;;;;;;;;;;;;27.11;54.21;100728.88;6274087;22;44772;-94
2021/09/14 13:21:07;;;;;;;;;155.17;155.17;;;;;26.71;54.87;100648.47;6292284;22;44744;-91
2021/09/14 13:23:33;;;;;;;;;;;;;;;27.20;53.95;100722.19;6269911;22;45157;-92
2021/09/14 13:26:01;;;;;;;;;149.50;148.25;;;;;26.86;51.85;100655.69;6286102;22;45007;-92
2021/09/14 13:28:41;;;;;;;;;;;;;;;27.26;53.62;100715.94;6276105;22;44747;-93
2021/09/14 14:00:56;;;;;;;;;53.67;45.33;;;;;27.21;53.38;100622.91;6118300;23;45089;-94
2021/09/14 14:06:37;;;;;;;;;142.50;141.50;;;;;27.38;53.47;100645.22;6153979;23;45945;-95
2021/09/14 14:09:04;;;;;;;;;;;;;;;27.63;54.79;100684.78;6137767;23;45342;-92
2021/09/14 14:11:29;;;;;;;;;156.00;155.83;;;;;27.56;52.63;100689.38;6139469;23;44755;-90
2021/09/14 14:13:58;;;;;;;;;146.83;146.50;;;;;27.12;52.93;100621.41;6085739;23;44833;-91
2021/09/14 14:16:29;;;;;;;;;153.80;153.80;;;;;27.57;53.25;100689.16;6086816;23;44883;-92
2021/09/14 14:19:12;;;;;;;;;161.67;160.33;;;;;27.54;54.28;100683.25;6112646;23;45224;-91
2021/09/14 14:21:38;;;;;;;;;160.00;159.83;;;;;27.41;53.34;100679.47;6118039;23;45360;-91
2021/09/14 14:24:12;;;;;;;;;151.17;149.83;;;;;27.15;53.36;100648.28;6108653;23;44781;-92
2021/09/14 14:26:37;;;;;;;;;151.83;150.83;;;;;26.93;54.18;100607.47;6114996;23;44997;-91
2021/09/14 14:29:03;;;;;;;;;;;;;;;27.32;53.65;100684.25;6092395;23;45280;-92
2021/09/14 14:31:28;;;;;;;;;158.40;157.80;;;;;27.20;54.33;100664.06;6113791;23;44777;-92
2021/09/14 14:33:54;;;;;;;;;;;;;;;27.25;54.38;100678.78;6092818;23;44795;-92
2021/09/14 14:36:19;;;;;;;;;157.00;157.00;;;;;27.01;53.98;100634.59;6115396;23;44830;-92
2021/09/14 14:38:47;;;;;;;;;167.00;167.00;;;;;27.21;53.59;100661.09;6109795;23;45283;-91
2021/09/14 14:41:15;;;;;;;;;62.86;51.14;;;;;26.97;54.07;100616.09;6093772;23;44742;-91
2021/09/14 14:43:41;;;;;;;;;163.17;162.33;;;;;27.33;53.08;100675.00;6093212;23;44692;-91
2021/09/14 14:46:08;;;;;;;;;162.33;160.33;;;;;26.95;52.42;100610.81;6086925;23;44812;-91
2021/09/14 14:48:33;;;;;;;;;;;;;;;27.34;54.78;100671.22;6111585;23;45125;-91
2021/09/14 14:51:02;;;;;;;;;157.00;156.20;;;;;27.22;53.57;100645.56;6106466;23;44713;-92
2021/09/14 14:53:27;;;;;;;;;;;;;;;27.40;54.06;100655.94;6112971;23;44759;-90
2021/09/14 14:55:54;;;;;;;;;145.00;145.00;;;;;27.16;53.10;100617.22;6126449;23;44799;-92
2021/09/14 14:58:20;;;;;;;;;163.33;163.33;;;;;27.04;51.06;100603.31;6127667;22;45365;-92
2021/09/14 15:00:50;;;;;;;;;152.67;151.50;;;;;27.07;53.46;100623.88;6103310;23;44656;-94
2021/09/14 15:03:19;;;;;;;;;;;;;;;27.23;54.45;100644.53;6103211;23;44743;-93
2021/09/14 15:05:51;;;;;;;;;146.17;144.67;;;;;27.15;54.52;100642.84;6120566;23;44831;-93
2021/09/14 15:08:18;;;;;;;;;160.00;159.83;;;;;26.94;55.32;100603.69;6138001;23;45211;-94
2021/09/14 15:10:49;;;;;;;;;156.29;156.14;;;;;27.23;54.94;100650.84;6122530;23;44635;-93
2021/09/14 15:13:20;;;;;;;;;47.33;40.17;;;;;26.84;54.48;100601.34;6123516;23;44780;-93
2021/09/14 15:16:11;;;;;;;;;151.17;150.83;;;;;27.12;54.93;100657.72;6145974;23;44844;-94
2021/09/14 15:19:21;;;;;;;;;;;;;;;;;;;;;
2021/09/14 15:22:47;;;;;;;;;150.00;148.83;;;;;26.65;55.28;100591.19;6144663;23;44700;-92
2021/09/14 15:25:15;;;;;;;;;154.40;153.60;;;;;26.59;55.66;100585.47;6107887;23;44803;-93
2021/09/14 15:27:44;;;;;;;;;150.17;150.17;;;;;26.98;55.49;100653.25;6120246;23;45100;-90
2021/09/14 15:30:31;;;;;;;;;153.33;153.33;;;;;26.81;55.73;100623.53;6106954;23;44841;-91
2021/09/14 15:33:16;;;;;;;;;170.20;170.20;;;;;26.62;56.38;100603.31;6111436;23;44765;-93
2021/09/14 15:35:44;;;;;;;;;162.33;162.33;;;;;26.88;56.18;100629.88;6110435;23;44875;-92
2021/09/14 15:38:21;;;;;;;;;;;;;;;26.90;55.76;100626.94;6112625;23;45265;-93
2021/09/14 15:40:58;;;;;;;;;124.67;124.67;;;;;26.49;56.27;100557.72;6158132;23;44646;-91
2021/09/14 15:43:47;;;;;;;;;166.40;164.20;;;;;26.64;56.06;100579.41;6134379;23;44772;-92
2021/09/14 15:46:19;;;;;;;;;144.67;144.67;;;;;26.91;56.28;100625.06;6136113;23;44854;-92
2021/09/14 15:48:51;;;;;;;;;167.57;167.29;;;;;26.71;56.86;100593.06;6109604;23;45245;-92
2021/09/14 15:51:28;;;;;;;;;159.50;159.50;;;;;26.73;56.44;100613.63;6139396;23;44769;-94
2021/09/14 15:53:58;;;;;;;;;160.33;160.17;;;;;26.32;56.65;100555.34;6138086;23;44711;-93
2021/09/14 15:56:24;;;;;;;;;165.60;165.60;;;;;26.47;56.53;100592.53;6123582;23;44939;-91
2021/09/14 15:58:54;;;;;;;;;158.67;158.67;;;;;26.55;56.65;100616.91;6116936;23;45162;-91
2021/09/14 16:01:24;;;;;;;;;;;;;;;26.67;57.60;100641.72;6113551;23;44740;-91
2021/09/14 16:03:55;;;;;;;;;159.50;159.50;;;;;26.41;56.65;100607.81;6108049;23;44719;-92
2021/09/14 16:06:43;;;;;;;;;;;;;;;;;;;;;
2021/09/14 16:09:14;;;;;;;;;150.83;150.83;;;;;26.37;57.03;100634.59;6140570;23;74572;-93
2021/09/14 16:15:02;;;;;;;;;149.83;149.33;;;;;26.01;57.64;100593.88;6142627;23;44831;-93
2021/09/14 16:17:38;;;;;;;;;150.67;150.33;;;;;26.04;57.67;100615.25;6115694;23;44845;-91
2021/09/14 16:20:48;;;;;;;;;;;;;;;;;;;;;
2021/09/14 16:26:28;;;;;;;;;154.83;154.33;;;;;26.06;58.58;100638.53;6156427;23;44636;-91
2021/09/14 16:28:53;;;;;;;;;;;;;;;26.01;58.84;100645.63;6099907;23;44824;-92
2021/09/14 16:31:20;;;;;;;;;139.80;139.80;;;;;25.96;59.28;100640.75;6119226;23;45040;-92
2021/09/14 16:33:49;;;;;;;;;147.33;147.33;;;;;25.71;59.24;100606.59;6117619;23;44748;-92
2021/09/14 16:36:18;;;;;;;;;148.20;148.00;;;;;25.61;59.07;100597.91;6119018;23;44798;-91
2021/09/14 16:38:44;;;;;;;;;153.60;153.60;;;;;25.58;58.62;100596.44;6120483;23;44803;-92
2021/09/14 16:41:13;;;;;;;;;153.50;152.67;;;;;25.46;59.38;100570.72;6119299;23;46552;-92
2021/09/14 16:43:43;;;;;;;;;141.50;141.17;;;;;25.80;59.71;100628.25;6116807;23;44852;-92
2021/09/14 16:46:13;;;;;;;;;149.00;147.83;;;;;25.40;60.25;100566.88;6144078;23;44724;-92
2021/09/14 16:48:43;;;;;;;;;142.17;142.17;;;;;25.34;60.51;100556.78;6120357;23;44947;-93
2021/09/14 16:51:11;;;;;;;;;162.60;162.00;;;;;25.66;59.95;100614.50;6113267;23;45208;-92
2021/09/14 16:53:54;;;;;;;;;;;;;;;25.61;60.93;100619.69;6119530;23;44679;-91
2021/09/14 16:56:27;;;;;;;;;104.33;103.67;;;;;25.51;61.87;100619.13;6203973;23;44734;-94
2021/09/14 16:59:00;;;;;;;;;128.33;128.33;;;;;25.42;62.85;100623.84;6179378;23;44831;-93
2021/09/14 17:01:29;;;;;;;;;150.50;150.50;;;;;25.07;63.08;100581.81;6154861;23;45080;-93
2021/09/14 17:03:58;;;;;;;;;137.50;137.17;;;;;24.95;63.78;100583.34;6179741;23;44760;-92
2021/09/14 17:06:29;;;;;;;;;149.67;149.67;;;;;24.91;64.26;100598.34;6183824;23;44605;-92
2021/09/14 17:08:56;;;;;;;;;147.20;147.00;;;;;24.69;64.85;100582.78;6155237;23;44914;-93
2021/09/14 17:18:46;;;;;;;;;;;;;;;;;;;;;
2021/09/14 17:21:55;;;;;;;;;47.83;40.67;;;;;24.45;66.27;100601.03;6026275;23;68893;-92
2021/09/14 17:25:36;;;;;;;;;;;;;;;;;;;;;
2021/09/14 17:28:59;;;;;;;;;;;;;;;;;;;;;
2021/09/14 17:31:59;;;;;;;;;58.86;48.00;;;;;24.32;66.72;100609.84;5860916;24;67529;-92
2021/09/14 18:02:06;;;;;;;;;114.17;113.83;;;;;24.24;69.95;100628.94;5916906;24;44772;-92
2021/09/14 18:04:49;;;;;;;;;109.17;108.67;;;;;23.98;69.41;100594.00;5916116;23;45288;-91
2021/09/14 19:17:36;;;;;;;;;72.00;66.83;;;;;23.64;70.91;100661.28;6159353;22;45116;-90
2021/09/14 19:20:06;;;;;;;;;79.00;74.33;;;;;23.51;71.47;100643.72;6118001;23;45078;-90
2021/09/14 19:22:46;;;;;;;;;159.33;157.17;;;;;23.47;71.11;100636.09;6121607;23;44800;-93
2021/09/14 19:25:15;;;;;;;;;126.67;126.00;;;;;23.58;71.62;100662.84;6145037;23;44951;-91
2021/09/14 19:27:41;;;;;;;;;73.20;67.00;;;;;23.75;71.18;100677.16;6118028;23;44850;-89
2021/09/14 19:30:08;;;;;;;;;120.33;120.33;;;;;23.73;70.04;100684.63;6141532;23;45537;-91